sensor_id;sensor_type;location;lat;lon;timestamp;P1;durP1;ratioP1;P2;durP2;ratioP2
2602;SDS011;1311;47.966;7.958;2022-12-18T00:02:13;16.87;;;7.60;;
2602;SDS011;1311;47.966;7.958;2022-12-18T00:04:40;19.20;;;9.30;;
2602;SDS011;1311;47.966;7.958;2022-12-18T00:07:07;11.93;;;5.90;;
2602;SDS011;1311;47.966;7.958;2022-12-18T00:09:34;22.63;;;9.70;;
2602;SDS011;1311;47.966;7.958;2022-12-18T00:12:02;15.07;;;6.60;;
2602;SDS011;1311;47.966;7.958;2022-12-18T00:14:29;15.50;;;8.77;;
2602;SDS011;1311;47.966;7.958;2022-12-18T00:16:57;13.43;;;5.73;;
2602;SDS011;1311;47.966;7.958;2022-12-18T00:19:25;10.27;;;5.20;;
2602;SDS011;1311;47.966;7.958;2022-12-18T00:21:52;10.87;;;5.30;;
2602;SDS011;1311;47.966;7.958;2022-12-18T00:24:19;11.30;;;4.63;;
2602;SDS011;1311;47.966;7.958;2022-12-18T00:26:46;13.50;;;5.93;;
2602;SDS011;1311;47.966;7.958;2022-12-18T00:29:13;15.83;;;9.00;;
2602;SDS011;1311;47.966;7.958;2022-12-18T00:31:40;13.10;;;7.73;;
2602;SDS011;1311;47.966;7.958;2022-12-18T00:34:10;11.30;;;5.90;;
2602;SDS011;1311;47.966;7.958;2022-12-18T00:36:38;13.53;;;6.77;;
2602;SDS011;1311;47.966;7.958;2022-12-18T00:39:06;17.43;;;7.60;;
2602;SDS011;1311;47.966;7.958;2022-12-18T00:41:33;14.33;;;8.00;;
2602;SDS011;1311;47.966;7.958;2022-12-18T00:44:17;9.70;;;6.00;;
2602;SDS011;1311;47.966;7.958;2022-12-18T00:46:45;17.10;;;6.90;;
2602;SDS011;1311;47.966;7.958;2022-12-18T00:49:14;10.63;;;6.10;;
2602;SDS011;1311;47.966;7.958;2022-12-18T00:51:41;15.00;;;7.30;;
2602;SDS011;1311;47.966;7.958;2022-12-18T00:54:08;10.53;;;6.80;;
2602;SDS011;1311;47.966;7.958;2022-12-18T00:56:36;11.13;;;5.93;;
2602;SDS011;1311;47.966;7.958;2022-12-18T00:59:03;10.43;;;6.27;;
2602;SDS011;1311;47.966;7.958;2022-12-18T01:01:30;15.93;;;8.93;;
2602;SDS011;1311;47.966;7.958;2022-12-18T01:03:59;8.20;;;4.73;;
2602;SDS011;1311;47.966;7.958;2022-12-18T01:06:29;12.30;;;6.70;;
2602;SDS011;1311;47.966;7.958;2022-12-18T01:08:56;17.60;;;7.63;;
2602;SDS011;1311;47.966;7.958;2022-12-18T01:11:23;10.93;;;6.53;;
2602;SDS011;1311;47.966;7.958;2022-12-18T01:13:51;15.53;;;7.57;;
2602;SDS011;1311;47.966;7.958;2022-12-18T01:16:18;13.90;;;7.60;;
2602;SDS011;1311;47.966;7.958;2022-12-18T01:18:45;12.97;;;7.47;;
2602;SDS011;1311;47.966;7.958;2022-12-18T01:21:13;14.27;;;9.00;;
2602;SDS011;1311;47.966;7.958;2022-12-18T01:23:42;9.53;;;6.17;;
2602;SDS011;1311;47.966;7.958;2022-12-18T01:26:10;13.77;;;6.10;;
2602;SDS011;1311;47.966;7.958;2022-12-18T01:28:39;8.20;;;4.73;;
2602;SDS011;1311;47.966;7.958;2022-12-18T01:31:10;13.13;;;5.77;;
2602;SDS011;1311;47.966;7.958;2022-12-18T01:33:38;11.50;;;6.03;;
2602;SDS011;1311;47.966;7.958;2022-12-18T01:36:05;11.03;;;6.03;;
2602;SDS011;1311;47.966;7.958;2022-12-18T01:38:32;8.37;;;4.77;;
2602;SDS011;1311;47.966;7.958;2022-12-18T01:41:00;9.53;;;5.30;;
2602;SDS011;1311;47.966;7.958;2022-12-18T01:43:44;11.50;;;5.17;;
2602;SDS011;1311;47.966;7.958;2022-12-18T01:46:13;11.60;;;5.27;;
2602;SDS011;1311;47.966;7.958;2022-12-18T01:48:41;11.33;;;5.13;;
2602;SDS011;1311;47.966;7.958;2022-12-18T01:51:10;10.83;;;6.27;;
2602;SDS011;1311;47.966;7.958;2022-12-18T01:53:39;12.63;;;7.10;;
2602;SDS011;1311;47.966;7.958;2022-12-18T01:56:10;9.90;;;5.53;;
2602;SDS011;1311;47.966;7.958;2022-12-18T01:58:41;11.57;;;5.40;;
2602;SDS011;1311;47.966;7.958;2022-12-18T02:01:14;10.83;;;5.40;;
2602;SDS011;1311;47.966;7.958;2022-12-18T02:03:41;10.47;;;4.80;;
2602;SDS011;1311;47.966;7.958;2022-12-18T02:06:10;15.60;;;7.40;;
2602;SDS011;1311;47.966;7.958;2022-12-18T02:08:45;11.37;;;6.50;;
2602;SDS011;1311;47.966;7.958;2022-12-18T02:11:24;10.53;;;6.50;;
2602;SDS011;1311;47.966;7.958;2022-12-18T02:14:00;12.70;;;5.70;;
2602;SDS011;1311;47.966;7.958;2022-12-18T02:16:38;11.10;;;5.70;;
2602;SDS011;1311;47.966;7.958;2022-12-18T02:19:13;12.40;;;5.10;;
2602;SDS011;1311;47.966;7.958;2022-12-18T02:21:52;6.83;;;4.60;;
2602;SDS011;1311;47.966;7.958;2022-12-18T02:24:28;8.17;;;5.20;;
2602;SDS011;1311;47.966;7.958;2022-12-18T02:27:02;9.00;;;5.13;;
2602;SDS011;1311;47.966;7.958;2022-12-18T02:29:33;11.07;;;5.70;;
2602;SDS011;1311;47.966;7.958;2022-12-18T02:32:04;9.00;;;4.87;;
2602;SDS011;1311;47.966;7.958;2022-12-18T02:34:36;8.47;;;4.30;;
2602;SDS011;1311;47.966;7.958;2022-12-18T02:37:05;9.13;;;4.17;;
2602;SDS011;1311;47.966;7.958;2022-12-18T02:39:36;11.07;;;6.00;;
2602;SDS011;1311;47.966;7.958;2022-12-18T02:42:06;9.77;;;4.97;;
2602;SDS011;1311;47.966;7.958;2022-12-18T02:44:33;9.50;;;5.33;;
2602;SDS011;1311;47.966;7.958;2022-12-18T02:47:01;13.00;;;6.27;;
2602;SDS011;1311;47.966;7.958;2022-12-18T02:49:31;8.87;;;5.90;;
2602;SDS011;1311;47.966;7.958;2022-12-18T02:52:05;7.60;;;5.10;;
2602;SDS011;1311;47.966;7.958;2022-12-18T02:54:48;9.10;;;5.63;;
2602;SDS011;1311;47.966;7.958;2022-12-18T02:57:23;15.17;;;6.87;;
2602;SDS011;1311;47.966;7.958;2022-12-18T03:00:00;9.67;;;6.00;;
2602;SDS011;1311;47.966;7.958;2022-12-18T03:02:33;15.83;;;7.37;;
2602;SDS011;1311;47.966;7.958;2022-12-18T03:05:07;15.23;;;4.53;;
2602;SDS011;1311;47.966;7.958;2022-12-18T03:07:40;12.73;;;6.20;;
2602;SDS011;1311;47.966;7.958;2022-12-18T03:10:12;9.60;;;5.50;;
2602;SDS011;1311;47.966;7.958;2022-12-18T03:12:45;14.00;;;7.27;;
2602;SDS011;1311;47.966;7.958;2022-12-18T03:15:18;10.63;;;5.70;;
2602;SDS011;1311;47.966;7.958;2022-12-18T03:17:50;9.23;;;5.77;;
2602;SDS011;1311;47.966;7.958;2022-12-18T03:20:21;14.07;;;4.87;;
2602;SDS011;1311;47.966;7.958;2022-12-18T03:22:50;11.83;;;5.27;;
2602;SDS011;1311;47.966;7.958;2022-12-18T03:25:20;12.10;;;6.03;;
2602;SDS011;1311;47.966;7.958;2022-12-18T03:27:51;11.37;;;6.30;;
2602;SDS011;1311;47.966;7.958;2022-12-18T03:30:24;9.13;;;4.50;;
2602;SDS011;1311;47.966;7.958;2022-12-18T03:32:53;11.43;;;6.20;;
2602;SDS011;1311;47.966;7.958;2022-12-18T03:35:26;12.50;;;4.27;;
2602;SDS011;1311;47.966;7.958;2022-12-18T03:37:55;9.77;;;4.63;;
2602;SDS011;1311;47.966;7.958;2022-12-18T03:40:24;9.63;;;4.93;;
2602;SDS011;1311;47.966;7.958;2022-12-18T03:42:57;11.90;;;5.20;;
2602;SDS011;1311;47.966;7.958;2022-12-18T03:45:31;4.10;;;3.20;;
2602;SDS011;1311;47.966;7.958;2022-12-18T03:48:02;5.97;;;4.73;;
2602;SDS011;1311;47.966;7.958;2022-12-18T03:50:36;13.87;;;6.27;;
2602;SDS011;1311;47.966;7.958;2022-12-18T03:53:17;6.97;;;3.83;;
2602;SDS011;1311;47.966;7.958;2022-12-18T03:55:50;9.17;;;4.40;;
2602;SDS011;1311;47.966;7.958;2022-12-18T03:58:20;7.40;;;5.07;;
2602;SDS011;1311;47.966;7.958;2022-12-18T04:00:51;10.10;;;7.30;;
2602;SDS011;1311;47.966;7.958;2022-12-18T04:03:20;11.83;;;6.17;;
2602;SDS011;1311;47.966;7.958;2022-12-18T04:05:48;11.00;;;5.43;;
2602;SDS011;1311;47.966;7.958;2022-12-18T04:08:17;8.13;;;4.70;;
2602;SDS011;1311;47.966;7.958;2022-12-18T04:10:44;7.03;;;4.70;;
2602;SDS011;1311;47.966;7.958;2022-12-18T04:13:11;8.57;;;4.90;;
2602;SDS011;1311;47.966;7.958;2022-12-18T04:15:40;11.47;;;4.73;;
2602;SDS011;1311;47.966;7.958;2022-12-18T04:18:07;8.83;;;5.20;;
2602;SDS011;1311;47.966;7.958;2022-12-18T04:20:34;13.80;;;7.47;;
2602;SDS011;1311;47.966;7.958;2022-12-18T04:23:01;9.17;;;5.17;;
2602;SDS011;1311;47.966;7.958;2022-12-18T04:25:27;11.57;;;5.70;;
2602;SDS011;1311;47.966;7.958;2022-12-18T04:27:54;11.83;;;4.90;;
2602;SDS011;1311;47.966;7.958;2022-12-18T04:30:21;10.07;;;4.87;;
2602;SDS011;1311;47.966;7.958;2022-12-18T04:32:49;9.03;;;4.37;;
2602;SDS011;1311;47.966;7.958;2022-12-18T04:35:16;8.80;;;3.77;;
2602;SDS011;1311;47.966;7.958;2022-12-18T04:37:43;13.40;;;6.17;;
2602;SDS011;1311;47.966;7.958;2022-12-18T04:40:10;9.27;;;5.10;;
2602;SDS011;1311;47.966;7.958;2022-12-18T04:42:38;11.20;;;5.73;;
2602;SDS011;1311;47.966;7.958;2022-12-18T04:45:06;9.23;;;4.60;;
2602;SDS011;1311;47.966;7.958;2022-12-18T04:47:33;13.03;;;5.87;;
2602;SDS011;1311;47.966;7.958;2022-12-18T04:50:02;8.40;;;4.30;;
2602;SDS011;1311;47.966;7.958;2022-12-18T04:52:32;5.97;;;3.83;;
2602;SDS011;1311;47.966;7.958;2022-12-18T04:54:59;7.00;;;3.50;;
2602;SDS011;1311;47.966;7.958;2022-12-18T04:57:25;9.03;;;5.67;;
2602;SDS011;1311;47.966;7.958;2022-12-18T04:59:52;8.90;;;4.70;;
2602;SDS011;1311;47.966;7.958;2022-12-18T05:02:19;7.10;;;3.90;;
2602;SDS011;1311;47.966;7.958;2022-12-18T05:04:46;13.50;;;3.70;;
2602;SDS011;1311;47.966;7.958;2022-12-18T05:07:14;6.87;;;3.93;;
2602;SDS011;1311;47.966;7.958;2022-12-18T05:09:41;10.20;;;4.73;;
2602;SDS011;1311;47.966;7.958;2022-12-18T05:12:07;6.13;;;3.30;;
2602;SDS011;1311;47.966;7.958;2022-12-18T05:14:34;11.70;;;5.30;;
2602;SDS011;1311;47.966;7.958;2022-12-18T05:17:03;8.63;;;3.60;;
2602;SDS011;1311;47.966;7.958;2022-12-18T05:19:29;3.50;;;2.97;;
2602;SDS011;1311;47.966;7.958;2022-12-18T05:21:56;5.20;;;2.57;;
2602;SDS011;1311;47.966;7.958;2022-12-18T05:24:24;7.60;;;2.93;;
2602;SDS011;1311;47.966;7.958;2022-12-18T05:26:51;7.73;;;3.47;;
2602;SDS011;1311;47.966;7.958;2022-12-18T05:29:18;4.00;;;2.83;;
2602;SDS011;1311;47.966;7.958;2022-12-18T05:31:45;3.87;;;2.70;;
2602;SDS011;1311;47.966;7.958;2022-12-18T05:34:12;5.40;;;2.20;;
2602;SDS011;1311;47.966;7.958;2022-12-18T05:36:39;4.30;;;2.57;;
2602;SDS011;1311;47.966;7.958;2022-12-18T05:39:05;4.97;;;3.80;;
2602;SDS011;1311;47.966;7.958;2022-12-18T05:41:34;5.10;;;2.80;;
2602;SDS011;1311;47.966;7.958;2022-12-18T05:44:00;17.90;;;5.73;;
2602;SDS011;1311;47.966;7.958;2022-12-18T05:46:28;25.50;;;12.27;;
2602;SDS011;1311;47.966;7.958;2022-12-18T05:48:58;25.07;;;12.07;;
2602;SDS011;1311;47.966;7.958;2022-12-18T05:51:25;14.70;;;6.40;;
2602;SDS011;1311;47.966;7.958;2022-12-18T05:53:52;17.40;;;7.77;;
2602;SDS011;1311;47.966;7.958;2022-12-18T05:56:20;23.97;;;8.73;;
2602;SDS011;1311;47.966;7.958;2022-12-18T05:58:52;15.90;;;8.20;;
2602;SDS011;1311;47.966;7.958;2022-12-18T06:01:20;16.23;;;8.43;;
2602;SDS011;1311;47.966;7.958;2022-12-18T06:03:48;20.50;;;6.73;;
2602;SDS011;1311;47.966;7.958;2022-12-18T06:06:16;10.50;;;5.10;;
2602;SDS011;1311;47.966;7.958;2022-12-18T06:08:44;15.50;;;7.63;;
2602;SDS011;1311;47.966;7.958;2022-12-18T06:11:12;13.10;;;7.30;;
2602;SDS011;1311;47.966;7.958;2022-12-18T06:13:41;15.70;;;7.37;;
2602;SDS011;1311;47.966;7.958;2022-12-18T06:16:09;13.77;;;7.17;;
2602;SDS011;1311;47.966;7.958;2022-12-18T06:18:36;14.97;;;5.40;;
2602;SDS011;1311;47.966;7.958;2022-12-18T06:21:04;12.10;;;5.00;;
2602;SDS011;1311;47.966;7.958;2022-12-18T06:23:31;8.87;;;5.50;;
2602;SDS011;1311;47.966;7.958;2022-12-18T06:25:58;6.90;;;4.00;;
2602;SDS011;1311;47.966;7.958;2022-12-18T06:28:29;9.03;;;3.63;;
2602;SDS011;1311;47.966;7.958;2022-12-18T06:30:55;9.80;;;5.03;;
2602;SDS011;1311;47.966;7.958;2022-12-18T06:33:25;5.73;;;3.97;;
2602;SDS011;1311;47.966;7.958;2022-12-18T06:35:53;10.27;;;4.63;;
2602;SDS011;1311;47.966;7.958;2022-12-18T06:38:19;7.37;;;3.40;;
2602;SDS011;1311;47.966;7.958;2022-12-18T06:40:46;3.77;;;3.33;;
2602;SDS011;1311;47.966;7.958;2022-12-18T06:43:13;7.10;;;3.70;;
2602;SDS011;1311;47.966;7.958;2022-12-18T06:45:40;9.00;;;4.10;;
2602;SDS011;1311;47.966;7.958;2022-12-18T06:48:07;9.30;;;4.40;;
2602;SDS011;1311;47.966;7.958;2022-12-18T06:50:35;5.10;;;3.53;;
2602;SDS011;1311;47.966;7.958;2022-12-18T06:53:02;6.07;;;4.70;;
2602;SDS011;1311;47.966;7.958;2022-12-18T06:55:28;4.07;;;2.30;;
2602;SDS011;1311;47.966;7.958;2022-12-18T06:57:55;8.03;;;2.87;;
2602;SDS011;1311;47.966;7.958;2022-12-18T07:00:22;3.57;;;2.50;;
2602;SDS011;1311;47.966;7.958;2022-12-18T07:02:49;2.50;;;2.30;;
2602;SDS011;1311;47.966;7.958;2022-12-18T07:05:16;2.60;;;2.30;;
2602;SDS011;1311;47.966;7.958;2022-12-18T07:07:44;3.60;;;2.37;;
2602;SDS011;1311;47.966;7.958;2022-12-18T07:10:11;4.37;;;2.80;;
2602;SDS011;1311;47.966;7.958;2022-12-18T07:12:38;10.87;;;5.43;;
2602;SDS011;1311;47.966;7.958;2022-12-18T07:15:05;8.60;;;4.70;;
2602;SDS011;1311;47.966;7.958;2022-12-18T07:17:33;8.60;;;5.90;;
2602;SDS011;1311;47.966;7.958;2022-12-18T07:19:59;11.87;;;8.07;;
2602;SDS011;1311;47.966;7.958;2022-12-18T07:22:26;17.60;;;9.07;;
2602;SDS011;1311;47.966;7.958;2022-12-18T07:24:55;17.03;;;8.00;;
2602;SDS011;1311;47.966;7.958;2022-12-18T07:27:22;16.00;;;8.60;;
2602;SDS011;1311;47.966;7.958;2022-12-18T07:29:49;13.27;;;6.77;;
2602;SDS011;1311;47.966;7.958;2022-12-18T07:32:16;13.07;;;6.30;;
2602;SDS011;1311;47.966;7.958;2022-12-18T07:34:43;13.07;;;7.63;;
2602;SDS011;1311;47.966;7.958;2022-12-18T07:37:09;14.50;;;6.57;;
2602;SDS011;1311;47.966;7.958;2022-12-18T07:39:36;13.70;;;5.50;;
2602;SDS011;1311;47.966;7.958;2022-12-18T07:42:07;8.83;;;6.27;;
2602;SDS011;1311;47.966;7.958;2022-12-18T07:44:51;12.17;;;6.13;;
2602;SDS011;1311;47.966;7.958;2022-12-18T07:47:18;16.83;;;9.10;;
2602;SDS011;1311;47.966;7.958;2022-12-18T07:49:45;11.43;;;6.80;;
2602;SDS011;1311;47.966;7.958;2022-12-18T07:52:18;14.67;;;7.67;;
2602;SDS011;1311;47.966;7.958;2022-12-18T07:54:45;13.27;;;8.17;;
2602;SDS011;1311;47.966;7.958;2022-12-18T07:57:16;21.07;;;8.57;;
2602;SDS011;1311;47.966;7.958;2022-12-18T07:59:44;16.80;;;8.60;;
2602;SDS011;1311;47.966;7.958;2022-12-18T08:02:11;20.57;;;9.63;;
2602;SDS011;1311;47.966;7.958;2022-12-18T08:04:38;23.37;;;11.30;;
2602;SDS011;1311;47.966;7.958;2022-12-18T08:07:05;15.63;;;9.70;;
2602;SDS011;1311;47.966;7.958;2022-12-18T08:09:32;14.93;;;9.63;;
2602;SDS011;1311;47.966;7.958;2022-12-18T08:11:59;10.70;;;6.00;;
2602;SDS011;1311;47.966;7.958;2022-12-18T08:14:27;14.23;;;6.40;;
2602;SDS011;1311;47.966;7.958;2022-12-18T08:16:54;8.17;;;4.40;;
2602;SDS011;1311;47.966;7.958;2022-12-18T08:19:21;12.53;;;6.53;;
2602;SDS011;1311;47.966;7.958;2022-12-18T08:21:48;15.63;;;8.70;;
2602;SDS011;1311;47.966;7.958;2022-12-18T08:24:14;20.17;;;8.23;;
2602;SDS011;1311;47.966;7.958;2022-12-18T08:26:42;11.37;;;7.23;;
2602;SDS011;1311;47.966;7.958;2022-12-18T08:29:09;11.10;;;6.57;;
2602;SDS011;1311;47.966;7.958;2022-12-18T08:31:38;11.10;;;8.87;;
2602;SDS011;1311;47.966;7.958;2022-12-18T08:34:04;16.67;;;12.13;;
2602;SDS011;1311;47.966;7.958;2022-12-18T08:36:31;19.60;;;12.80;;
2602;SDS011;1311;47.966;7.958;2022-12-18T08:38:58;17.67;;;9.73;;
2602;SDS011;1311;47.966;7.958;2022-12-18T08:41:25;16.27;;;9.73;;
2602;SDS011;1311;47.966;7.958;2022-12-18T08:43:51;14.03;;;8.63;;
2602;SDS011;1311;47.966;7.958;2022-12-18T08:46:38;12.77;;;7.03;;
2602;SDS011;1311;47.966;7.958;2022-12-18T08:49:06;8.30;;;5.73;;
2602;SDS011;1311;47.966;7.958;2022-12-18T08:51:33;10.30;;;6.30;;
2602;SDS011;1311;47.966;7.958;2022-12-18T08:54:01;18.97;;;11.90;;
2602;SDS011;1311;47.966;7.958;2022-12-18T08:56:28;13.50;;;7.43;;
2602;SDS011;1311;47.966;7.958;2022-12-18T08:58:56;13.93;;;7.30;;
2602;SDS011;1311;47.966;7.958;2022-12-18T09:01:23;12.47;;;6.30;;
2602;SDS011;1311;47.966;7.958;2022-12-18T09:03:52;13.43;;;6.90;;
2602;SDS011;1311;47.966;7.958;2022-12-18T09:06:19;17.77;;;10.63;;
2602;SDS011;1311;47.966;7.958;2022-12-18T09:08:48;10.50;;;6.00;;
2602;SDS011;1311;47.966;7.958;2022-12-18T09:11:18;9.60;;;6.67;;
2602;SDS011;1311;47.966;7.958;2022-12-18T09:13:47;9.07;;;5.53;;
2602;SDS011;1311;47.966;7.958;2022-12-18T09:16:13;9.37;;;4.63;;
2602;SDS011;1311;47.966;7.958;2022-12-18T09:18:40;9.67;;;7.03;;
2602;SDS011;1311;47.966;7.958;2022-12-18T09:21:09;7.33;;;5.30;;
2602;SDS011;1311;47.966;7.958;2022-12-18T09:23:37;10.30;;;5.80;;
2602;SDS011;1311;47.966;7.958;2022-12-18T09:26:04;7.53;;;6.00;;
2602;SDS011;1311;47.966;7.958;2022-12-18T09:28:31;14.67;;;7.47;;
2602;SDS011;1311;47.966;7.958;2022-12-18T09:30:58;8.57;;;5.20;;
2602;SDS011;1311;47.966;7.958;2022-12-18T09:33:31;6.97;;;4.07;;
2602;SDS011;1311;47.966;7.958;2022-12-18T09:36:00;6.17;;;4.47;;
2602;SDS011;1311;47.966;7.958;2022-12-18T09:38:30;6.73;;;5.20;;
2602;SDS011;1311;47.966;7.958;2022-12-18T09:40:57;4.53;;;4.03;;
2602;SDS011;1311;47.966;7.958;2022-12-18T09:43:28;9.97;;;6.27;;
2602;SDS011;1311;47.966;7.958;2022-12-18T09:46:01;10.43;;;6.80;;
2602;SDS011;1311;47.966;7.958;2022-12-18T09:48:33;14.37;;;10.07;;
2602;SDS011;1311;47.966;7.958;2022-12-18T09:51:03;14.10;;;9.50;;
2602;SDS011;1311;47.966;7.958;2022-12-18T09:53:38;11.87;;;7.53;;
2602;SDS011;1311;47.966;7.958;2022-12-18T09:56:10;11.30;;;7.90;;
2602;SDS011;1311;47.966;7.958;2022-12-18T09:58:43;8.67;;;6.57;;
2602;SDS011;1311;47.966;7.958;2022-12-18T10:01:14;8.43;;;5.50;;
2602;SDS011;1311;47.966;7.958;2022-12-18T10:03:44;10.00;;;5.33;;
2602;SDS011;1311;47.966;7.958;2022-12-18T10:06:13;5.13;;;3.40;;
2602;SDS011;1311;47.966;7.958;2022-12-18T10:08:46;4.63;;;3.23;;
2602;SDS011;1311;47.966;7.958;2022-12-18T10:11:24;5.77;;;4.20;;
2602;SDS011;1311;47.966;7.958;2022-12-18T10:14:00;5.67;;;3.50;;
2602;SDS011;1311;47.966;7.958;2022-12-18T10:16:34;3.73;;;3.10;;
2602;SDS011;1311;47.966;7.958;2022-12-18T10:19:15;3.13;;;2.50;;
2602;SDS011;1311;47.966;7.958;2022-12-18T10:21:56;6.00;;;3.97;;
2602;SDS011;1311;47.966;7.958;2022-12-18T10:24:31;7.60;;;5.00;;
2602;SDS011;1311;47.966;7.958;2022-12-18T10:27:07;6.40;;;4.53;;
2602;SDS011;1311;47.966;7.958;2022-12-18T10:29:39;6.07;;;4.57;;
2602;SDS011;1311;47.966;7.958;2022-12-18T10:32:08;10.50;;;7.00;;
2602;SDS011;1311;47.966;7.958;2022-12-18T10:34:41;9.63;;;6.30;;
2602;SDS011;1311;47.966;7.958;2022-12-18T10:37:11;8.60;;;5.90;;
2602;SDS011;1311;47.966;7.958;2022-12-18T10:39:43;9.50;;;7.23;;
2602;SDS011;1311;47.966;7.958;2022-12-18T10:42:11;9.80;;;7.07;;
2602;SDS011;1311;47.966;7.958;2022-12-18T10:44:43;7.47;;;4.80;;
2602;SDS011;1311;47.966;7.958;2022-12-18T10:47:11;7.23;;;5.10;;
2602;SDS011;1311;47.966;7.958;2022-12-18T10:49:42;6.43;;;4.60;;
2602;SDS011;1311;47.966;7.958;2022-12-18T10:52:14;5.73;;;3.20;;
2602;SDS011;1311;47.966;7.958;2022-12-18T10:54:48;5.87;;;4.90;;
2602;SDS011;1311;47.966;7.958;2022-12-18T10:57:16;6.70;;;4.50;;
2602;SDS011;1311;47.966;7.958;2022-12-18T10:59:56;5.37;;;3.93;;
2602;SDS011;1311;47.966;7.958;2022-12-18T11:02:27;12.73;;;4.07;;
2602;SDS011;1311;47.966;7.958;2022-12-18T11:05:00;6.23;;;4.00;;
2602;SDS011;1311;47.966;7.958;2022-12-18T11:07:35;4.53;;;3.20;;
2602;SDS011;1311;47.966;7.958;2022-12-18T11:10:16;3.30;;;2.60;;
2602;SDS011;1311;47.966;7.958;2022-12-18T11:12:44;2.70;;;2.50;;
2602;SDS011;1311;47.966;7.958;2022-12-18T11:15:14;4.50;;;4.10;;
2602;SDS011;1311;47.966;7.958;2022-12-18T11:17:44;4.60;;;3.90;;
2602;SDS011;1311;47.966;7.958;2022-12-18T11:20:19;3.80;;;2.70;;
2602;SDS011;1311;47.966;7.958;2022-12-18T11:22:54;5.73;;;3.30;;
2602;SDS011;1311;47.966;7.958;2022-12-18T11:25:24;6.70;;;4.57;;
2602;SDS011;1311;47.966;7.958;2022-12-18T11:27:52;6.40;;;3.70;;
2602;SDS011;1311;47.966;7.958;2022-12-18T11:30:22;5.30;;;4.23;;
2602;SDS011;1311;47.966;7.958;2022-12-18T11:32:52;7.83;;;5.70;;
2602;SDS011;1311;47.966;7.958;2022-12-18T11:35:23;8.83;;;5.90;;
2602;SDS011;1311;47.966;7.958;2022-12-18T11:37:57;8.40;;;6.43;;
2602;SDS011;1311;47.966;7.958;2022-12-18T11:40:31;9.10;;;6.63;;
2602;SDS011;1311;47.966;7.958;2022-12-18T11:43:02;10.60;;;7.47;;
2602;SDS011;1311;47.966;7.958;2022-12-18T11:45:35;10.77;;;6.70;;
2602;SDS011;1311;47.966;7.958;2022-12-18T11:48:12;6.47;;;5.00;;
2602;SDS011;1311;47.966;7.958;2022-12-18T11:50:44;10.77;;;6.60;;
2602;SDS011;1311;47.966;7.958;2022-12-18T11:53:14;9.33;;;5.77;;
2602;SDS011;1311;47.966;7.958;2022-12-18T11:55:47;7.40;;;5.67;;
2602;SDS011;1311;47.966;7.958;2022-12-18T11:58:26;7.53;;;5.80;;
2602;SDS011;1311;47.966;7.958;2022-12-18T12:01:10;6.80;;;4.80;;
2602;SDS011;1311;47.966;7.958;2022-12-18T12:03:53;9.70;;;6.77;;
2602;SDS011;1311;47.966;7.958;2022-12-18T12:06:37;12.80;;;7.30;;
2602;SDS011;1311;47.966;7.958;2022-12-18T12:09:12;11.83;;;7.73;;
2602;SDS011;1311;47.966;7.958;2022-12-18T12:11:50;7.47;;;5.60;;
2602;SDS011;1311;47.966;7.958;2022-12-18T12:14:33;4.87;;;4.33;;
2602;SDS011;1311;47.966;7.958;2022-12-18T12:17:15;6.93;;;5.10;;
2602;SDS011;1311;47.966;7.958;2022-12-18T12:19:51;9.63;;;5.70;;
2602;SDS011;1311;47.966;7.958;2022-12-18T12:22:28;6.23;;;4.97;;
2602;SDS011;1311;47.966;7.958;2022-12-18T12:25:07;11.67;;;8.07;;
2602;SDS011;1311;47.966;7.958;2022-12-18T12:27:46;9.50;;;7.20;;
2602;SDS011;1311;47.966;7.958;2022-12-18T12:30:25;11.03;;;8.17;;
2602;SDS011;1311;47.966;7.958;2022-12-18T12:33:04;13.60;;;8.90;;
2602;SDS011;1311;47.966;7.958;2022-12-18T12:35:46;14.53;;;9.93;;
2602;SDS011;1311;47.966;7.958;2022-12-18T12:38:19;15.57;;;9.67;;
2602;SDS011;1311;47.966;7.958;2022-12-18T12:40:51;12.70;;;8.60;;
2602;SDS011;1311;47.966;7.958;2022-12-18T12:43:27;16.07;;;10.30;;
2602;SDS011;1311;47.966;7.958;2022-12-18T12:46:03;16.57;;;10.70;;
2602;SDS011;1311;47.966;7.958;2022-12-18T12:48:33;19.07;;;11.53;;
2602;SDS011;1311;47.966;7.958;2022-12-18T12:51:06;16.23;;;10.47;;
2602;SDS011;1311;47.966;7.958;2022-12-18T12:53:38;15.37;;;10.47;;
2602;SDS011;1311;47.966;7.958;2022-12-18T12:56:08;13.20;;;9.37;;
2602;SDS011;1311;47.966;7.958;2022-12-18T12:58:41;14.83;;;10.27;;
2602;SDS011;1311;47.966;7.958;2022-12-18T13:01:15;15.10;;;9.83;;
2602;SDS011;1311;47.966;7.958;2022-12-18T13:03:52;16.17;;;12.30;;
2602;SDS011;1311;47.966;7.958;2022-12-18T13:06:25;21.97;;;14.10;;
2602;SDS011;1311;47.966;7.958;2022-12-18T13:09:02;22.90;;;13.60;;
2602;SDS011;1311;47.966;7.958;2022-12-18T13:11:31;22.60;;;13.23;;
2602;SDS011;1311;47.966;7.958;2022-12-18T13:14:24;23.33;;;13.73;;
2602;SDS011;1311;47.966;7.958;2022-12-18T13:20:02;20.10;;;12.40;;
2602;SDS011;1311;47.966;7.958;2022-12-18T13:22:35;20.90;;;14.27;;
2602;SDS011;1311;47.966;7.958;2022-12-18T13:28:00;22.93;;;15.83;;
2602;SDS011;1311;47.966;7.958;2022-12-18T13:30:45;17.23;;;10.87;;
2602;SDS011;1311;47.966;7.958;2022-12-18T13:36:29;20.63;;;14.50;;
2602;SDS011;1311;47.966;7.958;2022-12-18T13:45:35;23.63;;;15.80;;
2602;SDS011;1311;47.966;7.958;2022-12-18T13:51:26;21.37;;;14.40;;
2602;SDS011;1311;47.966;7.958;2022-12-18T13:53:54;24.57;;;17.30;;
2602;SDS011;1311;47.966;7.958;2022-12-18T13:56:24;24.93;;;16.33;;
2602;SDS011;1311;47.966;7.958;2022-12-18T13:59:12;27.60;;;17.50;;
2602;SDS011;1311;47.966;7.958;2022-12-18T14:01:45;23.50;;;15.80;;
2602;SDS011;1311;47.966;7.958;2022-12-18T14:04:18;20.57;;;12.60;;
2602;SDS011;1311;47.966;7.958;2022-12-18T14:06:49;15.63;;;11.03;;
2602;SDS011;1311;47.966;7.958;2022-12-18T14:09:19;28.33;;;15.57;;
2602;SDS011;1311;47.966;7.958;2022-12-18T14:11:50;19.80;;;13.57;;
2602;SDS011;1311;47.966;7.958;2022-12-18T14:14:40;22.97;;;15.87;;
2602;SDS011;1311;47.966;7.958;2022-12-18T14:17:08;27.03;;;15.80;;
2602;SDS011;1311;47.966;7.958;2022-12-18T14:19:36;25.10;;;15.77;;
2602;SDS011;1311;47.966;7.958;2022-12-18T14:22:11;22.40;;;14.03;;
2602;SDS011;1311;47.966;7.958;2022-12-18T14:24:41;27.27;;;16.80;;
2602;SDS011;1311;47.966;7.958;2022-12-18T14:27:12;18.67;;;13.43;;
2602;SDS011;1311;47.966;7.958;2022-12-18T14:29:45;24.73;;;14.43;;
2602;SDS011;1311;47.966;7.958;2022-12-18T14:32:12;24.30;;;15.90;;
2602;SDS011;1311;47.966;7.958;2022-12-18T14:34:42;24.60;;;15.93;;
2602;SDS011;1311;47.966;7.958;2022-12-18T14:37:09;27.73;;;15.90;;
2602;SDS011;1311;47.966;7.958;2022-12-18T14:39:39;26.13;;;16.47;;
2602;SDS011;1311;47.966;7.958;2022-12-18T14:42:09;22.73;;;12.50;;
2602;SDS011;1311;47.966;7.958;2022-12-18T14:44:36;27.20;;;16.43;;
2602;SDS011;1311;47.966;7.958;2022-12-18T14:47:03;21.50;;;13.27;;
2602;SDS011;1311;47.966;7.958;2022-12-18T14:49:31;26.33;;;16.50;;
2602;SDS011;1311;47.966;7.958;2022-12-18T14:51:59;23.63;;;13.67;;
2602;SDS011;1311;47.966;7.958;2022-12-18T14:54:29;23.77;;;14.87;;
2602;SDS011;1311;47.966;7.958;2022-12-18T14:56:58;26.17;;;15.50;;
2602;SDS011;1311;47.966;7.958;2022-12-18T14:59:28;19.47;;;12.67;;
2602;SDS011;1311;47.966;7.958;2022-12-18T15:01:59;25.07;;;15.10;;
2602;SDS011;1311;47.966;7.958;2022-12-18T15:04:29;24.60;;;14.70;;
2602;SDS011;1311;47.966;7.958;2022-12-18T15:07:12;27.30;;;15.40;;
2602;SDS011;1311;47.966;7.958;2022-12-18T15:10:00;22.90;;;13.40;;
2602;SDS011;1311;47.966;7.958;2022-12-18T15:12:32;17.43;;;11.70;;
2602;SDS011;1311;47.966;7.958;2022-12-18T15:15:01;39.93;;;21.73;;
2602;SDS011;1311;47.966;7.958;2022-12-18T15:17:28;36.83;;;21.53;;
2602;SDS011;1311;47.966;7.958;2022-12-18T15:19:58;25.70;;;15.10;;
2602;SDS011;1311;47.966;7.958;2022-12-18T15:22:28;25.23;;;13.07;;
2602;SDS011;1311;47.966;7.958;2022-12-18T15:25:03;25.37;;;13.90;;
2602;SDS011;1311;47.966;7.958;2022-12-18T15:27:53;26.97;;;16.57;;
2602;SDS011;1311;47.966;7.958;2022-12-18T15:30:20;22.80;;;12.83;;
2602;SDS011;1311;47.966;7.958;2022-12-18T15:32:49;29.40;;;15.60;;
2602;SDS011;1311;47.966;7.958;2022-12-18T15:35:17;27.13;;;17.17;;
2602;SDS011;1311;47.966;7.958;2022-12-18T15:37:47;27.13;;;15.80;;
2602;SDS011;1311;47.966;7.958;2022-12-18T15:40:17;24.23;;;13.80;;
2602;SDS011;1311;47.966;7.958;2022-12-18T15:42:45;17.33;;;10.70;;
2602;SDS011;1311;47.966;7.958;2022-12-18T15:45:31;20.00;;;12.30;;